London Airport
CYXU : now visible

Airfield :











YOU CAN JOIN US ON...

 
LOGIN :

Register | Disclaimer

   EN    FR    IT 

 









Legend :    VFR   Marginal VFR   IFR   Intensive IFR   Very Intensive IFR
Visi :
Ceiling :
>= 8 km
>= 3000ft
5 to 8 km
1000 to 3000 ft
1500m to 5 km
500 to 1000 ft
800 to 1500m
200 to 500 ft
< 800m
< 200 ft
Symbols :   Thunderstorms  Fog  Heavy snow  Heavy precipitations  Wind > 20 kt






- Airport Elevation : 912 ft
- IATA code : YXU


CYXU - London

CURRENT METAR :
  • 152326Z 19009KT 6SM -RASN OVC005 01/01 A2960 RMK ST8 SLP034

EXPIRED METARs :
  • 152300Z 17006KT 8SM -RA BR BKN006 BKN018 02/01 A2958 RMK SF5SC2 SLP028
  • 152249Z 19006KT 8SM -RA SCT007 OVC018 02/01 A2958 RMK SF4SC4 CIG RAG SLP027
  • 152226Z 19010KT 4SM -RA BR BKN007 OVC014 02/01 A2957 RMK SF5SC3 SLP024
  • 152200Z 19009KT 6SM -RA BR FEW009 OVC014 03/01 A2957 RMK SF1SC7 CIG RAG SLP023
  • 152151Z 18008KT 130V200 4SM -RA BR FEW009 OVC014 03/01 A2957 RMK SF1SC7 CIG RAG SLP023
  • 152134Z 10008KT 4SM -RA BR OVC018 02/01 A2956 RMK SC8 CIG RAG SLP020

TAF TAF CYXU
Valid from the 16 at 00:00 until the 17 at 00:00 UTC


152340Z 1600/1624 19010KT 6SM -RA -SN OVC004
TEMPO 1600/1603 P6SM NSW OVC006
FM160300 22012KT P6SM SCT003
PROB30 1603/1609 1SM BR BKN003
FM160900 VRB03KT 1SM BR BKN004
BECMG 1616/1618 24009KT
FM161900 23009KT P6SM OVC010 RMK NXT FCST BY 160600Z
CZYZ FIR / North America



MET'MAP, your aeronautical weather chart ! - Copyright ORBIFLY December 2007 - Disclaimer

ORBIFLY MET'MAP TEAM :

Programming & Development : Alexandra Zaïnal
Concept & original design : Baudouin d'Aumeries
Assistance for programming : Marc-Olivier Méhu
Technical & hardware support : Manuel Goepfert

Contact : metmap@orbifly.com




SOURCES & CREDITS :

   NOAA       Earth
Advisory